Map

Track Data

SID SEASON NUMBER BASIN SUBBASIN NAME ISO_TIME NATURE LAT LON WMO_WIND WMO_PRES WMO_AGENCY TRACK_TYPE DIST2LAND LANDFALL IFLAG USA_AGENCY USA_ATCF_ID USA_LAT USA_LON USA_RECORD USA_STATUS USA_WIND USA_PRES USA_SSHS USA_R34_NE USA_R34_SE USA_R34_SW USA_R34_NW USA_R50_NE USA_R50_SE USA_R50_SW USA_R50_NW USA_R64_NE USA_R64_SE USA_R64_SW USA_R64_NW USA_POCI USA_ROCI USA_RMW USA_EYE TOKYO_LAT TOKYO_LON TOKYO_GRADE TOKYO_WIND TOKYO_PRES TOKYO_R50_DIR TOKYO_R50_LONG TOKYO_R50_SHORT TOKYO_R30_DIR TOKYO_R30_LONG TOKYO_R30_SHORT TOKYO_LAND CMA_LAT CMA_LON CMA_CAT CMA_WIND CMA_PRES HKO_LAT HKO_LON HKO_CAT HKO_WIND HKO_PRES NEWDELHI_LAT NEWDELHI_LON NEWDELHI_GRADE NEWDELHI_WIND NEWDELHI_PRES NEWDELHI_CI NEWDELHI_DP NEWDELHI_POCI REUNION_LAT REUNION_LON REUNION_TYPE REUNION_WIND REUNION_PRES REUNION_TNUM REUNION_CI REUNION_RMW REUNION_R34_NE REUNION_R34_SE REUNION_R34_SW REUNION_R34_NW REUNION_R50_NE REUNION_R50_SE REUNION_R50_SW REUNION_R50_NW REUNION_R64_NE REUNION_R64_SE REUNION_R64_SW REUNION_R64_NW BOM_LAT BOM_LON BOM_TYPE BOM_WIND BOM_PRES BOM_TNUM BOM_CI BOM_RMW BOM_R34_NE BOM_R34_SE BOM_R34_SW BOM_R34_NW BOM_R50_NE BOM_R50_SE BOM_R50_SW BOM_R50_NW BOM_R64_NE BOM_R64_SE BOM_R64_SW BOM_R64_NW BOM_ROCI BOM_POCI BOM_EYE BOM_POS_METHOD BOM_PRES_METHOD NADI_LAT NADI_LON NADI_CAT NADI_WIND NADI_PRES WELLINGTON_LAT WELLINGTON_LON WELLINGTON_WIND WELLINGTON_PRES DS824_LAT DS824_LON DS824_STAGE DS824_WIND DS824_PRES TD9636_LAT TD9636_LON TD9636_STAGE TD9636_WIND TD9636_PRES TD9635_LAT TD9635_LON TD9635_WIND TD9635_PRES TD9635_ROCI NEUMANN_LAT NEUMANN_LON NEUMANN_CLASS NEUMANN_WIND NEUMANN_PRES MLC_LAT MLC_LON MLC_CLASS MLC_WIND MLC_PRES USA_GUST BOM_GUST BOM_GUST_PER REUNION_GUST REUNION_GUST_PER USA_SEAHGT USA_SEARAD_NE USA_SEARAD_SE USA_SEARAD_SW USA_SEARAD_NW STORM_SPEED STORM_DIR
1921261N20131 1921 49 WP MM NOT_NAMED 1921-09-17 22:00:00 NR 19.6000 131.400 main 966 955 __________O___ -1 19.6000 131.400 3 3 313
1921261N20131 1921 49 WP MM NOT_NAMED 1921-09-18 00:00:00 NR 19.6711 131.319 main 956 946 __________P___ -1 19.6711 131.319 3 3 313
1921261N20131 1921 49 WP MM NOT_NAMED 1921-09-18 03:00:00 NR 19.7760 131.204 main 948 937 __________P___ -1 19.7760 131.204 3 3 315
1921261N20131 1921 49 WP MM NOT_NAMED 1921-09-18 06:00:00 NR 19.8766 131.101 main 939 929 __________P___ -1 19.8766 131.101 3 3 319
1921261N20131 1921 49 WP MM NOT_NAMED 1921-09-18 09:00:00 NR 19.9706 131.021 main 930 930 __________P___ -1 19.9706 131.021 3 2 321
1921261N20131 1921 49 WP MM NOT_NAMED 1921-09-18 10:00:00 NR 20.0000 131.000 main 930 930 __________O___ -1 20.0000 131.000 4 2 324
1921261N20131 1921 49 WP MM NOT_NAMED 1921-09-18 12:00:00 NR 20.0557 130.969 main 932 922 __________P___ -1 20.0557 130.969 4 2 339
1921261N20131 1921 49 WP MM NOT_NAMED 1921-09-18 15:00:00 NR 20.1329 130.941 main 922 922 __________P___ -1 20.1329 130.941 4 2 348
1921261N20131 1921 49 WP MM NOT_NAMED 1921-09-18 18:00:00 NR 20.2054 130.925 main 924 924 __________P___ -1 20.2054 130.925 4 1 345
1921261N20131 1921 49 WP MM NOT_NAMED 1921-09-18 21:00:00 NR 20.2762 130.908 main 926 926 __________P___ -1 20.2762 130.908 4 1 347
1921261N20131 1921 49 WP MM NOT_NAMED 1921-09-18 22:00:00 NR 20.3000 130.900 main 926 926 __________O___ -1 20.3000 130.900 4 2 339
1921261N20131 1921 49 WP MM NOT_NAMED 1921-09-19 00:00:00 NR 20.3500 130.870 main 929 918 __________P___ -1 20.3500 130.870 4 2 328
1921261N20131 1921 49 WP MM NOT_NAMED 1921-09-19 03:00:00 NR 20.4250 130.818 main 918 918 __________P___ -1 20.4250 130.818 4 2 328
1921261N20131 1921 49 WP MM NOT_NAMED 1921-09-19 06:00:00 NR 20.5000 130.764 main 921 911 __________P___ -1 20.5000 130.764 4 2 328
1921261N20131 1921 49 WP MM NOT_NAMED 1921-09-19 09:00:00 NR 20.5750 130.715 main 914 914 __________P___ -1 20.5750 130.715 4 2 333
1921261N20131 1921 49 WP MM NOT_NAMED 1921-09-19 10:00:00 NR 20.6000 130.700 main 914 914 __________O___ -1 20.6000 130.700 4 2 328
1921261N20131 1921 49 WP MM NOT_NAMED 1921-09-19 12:00:00 NR 20.6500 130.680 main 916 916 __________P___ -1 20.6500 130.680 4 2 342
1921261N20131 1921 49 WP MM NOT_NAMED 1921-09-19 15:00:00 NR 20.7250 130.657 main 916 906 __________P___ -1 20.7250 130.657 4 2 348
1921261N20131 1921 49 WP MM NOT_NAMED 1921-09-19 18:00:00 NR 20.8000 130.636 main 909 909 __________P___ -1 20.8000 130.636 4 2 348
1921261N20131 1921 49 WP MM NOT_NAMED 1921-09-19 21:00:00 NR 20.8750 130.610 main 912 912 __________P___ -1 20.8750 130.610 4 2 343
1921261N20131 1921 49 WP MM NOT_NAMED 1921-09-19 22:00:00 NR 20.9000 130.600 main 912 912 __________O___ -1 20.9000 130.600 4 2 328
1921261N20131 1921 49 WP MM NOT_NAMED 1921-09-20 00:00:00 NR 20.9500 130.570 main 916 906 __________P___ -1 20.9500 130.570 4 2 328
1921261N20131 1921 49 WP MM NOT_NAMED 1921-09-20 03:00:00 NR 21.0250 130.518 main 906 906 __________P___ -1 21.0250 130.518 4 2 328
1921261N20131 1921 49 WP MM NOT_NAMED 1921-09-20 06:00:00 NR 21.1000 130.464 main 909 899 __________P___ -1 21.1000 130.464 4 2 328
1921261N20131 1921 49 WP MM NOT_NAMED 1921-09-20 09:00:00 NR 21.1750 130.415 main 903 903 __________P___ -1 21.1750 130.415 4 2 333
1921261N20131 1921 49 WP MM NOT_NAMED 1921-09-20 10:00:00 NR 21.2000 130.400 main 903 903 __________O___ -1 21.2000 130.400 4 2 331
1921261N20131 1921 49 WP MM NOT_NAMED 1921-09-20 12:00:00 NR 21.2526 130.375 main 906 897 __________P___ -1 21.2526 130.375 4 2 337
1921261N20131 1921 49 WP MM NOT_NAMED 1921-09-20 15:00:00 NR 21.3316 130.344 main 897 897 __________P___ -1 21.3316 130.344 4 2 342
1921261N20131 1921 49 WP MM NOT_NAMED 1921-09-20 18:00:00 NR 21.4079 130.320 main 900 900 __________P___ -1 21.4079 130.320 4 2 343
1921261N20131 1921 49 WP MM NOT_NAMED 1921-09-20 21:00:00 NR 21.4783 130.304 main 904 904 __________P___ -1 21.4783 130.304 4 1 0
1921261N20131 1921 49 WP MM NOT_NAMED 1921-09-20 22:00:00 NR 21.5000 130.300 main 904 904 __________O___ -1 21.5000 130.300 4 1 352
1921261N20131 1921 49 WP MM NOT_NAMED 1921-09-21 00:00:00 NR 21.5338 130.294 main 904 904 __________P___ -1 21.5338 130.294 4 1 351
1921261N20131 1921 49 WP MM NOT_NAMED 1921-09-21 03:00:00 NR 21.5781 130.292 main 909 909 __________P___ -1 21.5781 130.292 4 1 0
1921261N20131 1921 49 WP MM NOT_NAMED 1921-09-21 06:00:00 NR 21.6230 130.295 main 909 909 __________P___ -1 21.6230 130.295 4 1 0
1921261N20131 1921 49 WP MM NOT_NAMED 1921-09-21 09:00:00 NR 21.6779 130.299 main 913 913 __________P___ -1 21.6779 130.299 4 1 13
1921261N20131 1921 49 WP MM NOT_NAMED 1921-09-21 10:00:00 NR 21.7000 130.300 main 913 909 __________O___ -1 21.7000 130.300 4 2 0
1921261N20131 1921 49 WP MM NOT_NAMED 1921-09-21 12:00:00 NR 21.7579 130.297 main 909 905 __________P___ -1 21.7579 130.297 4 2 354
1921261N20131 1921 49 WP MM NOT_NAMED 1921-09-21 15:00:00 NR 21.8573 130.293 main 905 901 __________P___ -1 21.8573 130.293 4 2 0
1921261N20131 1921 49 WP MM NOT_NAMED 1921-09-21 18:00:00 NR 21.9637 130.292 main 901 898 __________P___ -1 21.9637 130.292 4 2 0
1921261N20131 1921 49 WP MM NOT_NAMED 1921-09-21 21:00:00 NR 22.0676 130.297 main 898 898 __________P___ -1 22.0676 130.297 4 2 6
1921261N20131 1921 49 WP MM NOT_NAMED 1921-09-21 22:00:00 NR 22.1000 130.300 main 898 894 __________O___ -1 22.1000 130.300 4 2 5
1921261N20131 1921 49 WP MM NOT_NAMED 1921-09-22 00:00:00 NR 22.1557 130.311 main 894 894 __________P___ -1 22.1557 130.311 4 2 14
1921261N20131 1921 49 WP MM NOT_NAMED 1921-09-22 03:00:00 NR 22.2330 130.334 main 894 891 __________P___ -1 22.2330 130.334 4 2 12
1921261N20131 1921 49 WP MM NOT_NAMED 1921-09-22 06:00:00 NR 22.3054 130.361 main 900 897 __________P___ -1 22.3054 130.361 4 2 21
1921261N20131 1921 49 WP MM NOT_NAMED 1921-09-22 09:00:00 NR 22.3762 130.390 main 897 897 __________P___ -1 22.3762 130.390 4 2 25
1921261N20131 1921 49 WP MM NOT_NAMED 1921-09-22 10:00:00 NR 22.4000 130.400 main 897 897 __________O___ -1 22.4000 130.400 4 2 0
1921261N20131 1921 49 WP MM NOT_NAMED 1921-09-22 12:00:00 NR 22.4474 130.417 main 897 894 __________P___ -1 22.4474 130.417 4 2 19
1921261N20131 1921 49 WP MM NOT_NAMED 1921-09-22 15:00:00 NR 22.5184 130.442 main 894 894 __________P___ -1 22.5184 130.442 4 2 12
1921261N20131 1921 49 WP MM NOT_NAMED 1921-09-22 18:00:00 NR 22.5921 130.467 main 901 898 __________P___ -1 22.5921 130.467 4 2 14
1921261N20131 1921 49 WP MM NOT_NAMED 1921-09-22 21:00:00 NR 22.6716 130.492 main 898 898 __________P___ -1 22.6716 130.492 4 2 15
1921261N20131 1921 49 WP MM NOT_NAMED 1921-09-22 22:00:00 NR 22.7000 130.500 main 898 895 __________O___ -1 22.7000 130.500 4 2 13
1921261N20131 1921 49 WP MM NOT_NAMED 1921-09-23 00:00:00 NR 22.7662 130.514 main 895 893 __________P___ -1 22.7662 130.514 4 2 14
1921261N20131 1921 49 WP MM NOT_NAMED 1921-09-23 03:00:00 NR 22.8719 130.535 main 893 893 __________P___ -1 22.8719 130.535 4 2 8
1921261N20131 1921 49 WP MM NOT_NAMED 1921-09-23 06:00:00 NR 22.9770 130.559 main 893 882 __________P___ -1 22.9770 130.559 4 2 17
1921261N20131 1921 49 WP MM NOT_NAMED 1921-09-23 09:00:00 NR 23.0721 130.588 main 882 882 __________P___ -1 23.0721 130.588 4 2 20
1921261N20131 1921 49 WP MM NOT_NAMED 1921-09-23 10:00:00 NR 23.1000 130.600 main 882 882 __________O___ -1 23.1000 130.600 4 1 32
1921261N20131 1921 49 WP MM NOT_NAMED 1921-09-23 12:00:00 NR 23.1395 130.622 main 882 871 __________P___ -1 23.1395 130.622 4 1 35
1921261N20131 1921 49 WP MM NOT_NAMED 1921-09-23 15:00:00 NR 23.1860 130.662 main 871 871 __________P___ -1 23.1860 130.662 4 1 42
1921261N20131 1921 49 WP MM NOT_NAMED 1921-09-23 18:00:00 NR 23.2284 130.712 main 871 859 __________P___ -1 23.2284 130.712 4 1 49
1921261N20131 1921 49 WP MM NOT_NAMED 1921-09-23 21:00:00 NR 23.2791 130.775 main 859 859 __________P___ -1 23.2791 130.775 4 2 47
1921261N20131 1921 49 WP MM NOT_NAMED 1921-09-23 22:00:00 NR 23.3000 130.800 main 859 848 __________O___ -1 23.3000 130.800 4 2 41
1921261N20131 1921 49 WP MM NOT_NAMED 1921-09-24 00:00:00 NR 23.3526 130.855 main 848 848 __________P___ -1 23.3526 130.855 4 2 43
1921261N20131 1921 49 WP MM NOT_NAMED 1921-09-24 03:00:00 NR 23.4441 130.951 main 849 838 __________P___ -1 23.4441 130.951 4 3 43
1921261N20131 1921 49 WP MM NOT_NAMED 1921-09-24 06:00:00 NR 23.5479 131.056 main 838 816 __________P___ -1 23.5479 131.056 4 3 42
1921261N20131 1921 49 WP MM NOT_NAMED 1921-09-24 09:00:00 NR 23.6609 131.164 main 816 816 __________P___ -1 23.6609 131.164 4 3 41
1921261N20131 1921 49 WP MM NOT_NAMED 1921-09-24 10:00:00 NR 23.7000 131.200 main 816 805 __________O___ -1 23.7000 131.200 4 3 39
1921261N20131 1921 49 WP MM NOT_NAMED 1921-09-24 12:00:00 NR 23.7671 131.259 main 806 795 __________P___ -1 23.7671 131.259 4 3 38
1921261N20131 1921 49 WP MM NOT_NAMED 1921-09-24 15:00:00 NR 23.8738 131.347 main 795 784 __________P___ -1 23.8738 131.347 4 3 37
1921261N20131 1921 49 WP MM NOT_NAMED 1921-09-24 18:00:00 NR 23.9962 131.443 main 784 774 __________P___ -1 23.9962 131.443 4 3 35
1921261N20131 1921 49 WP MM NOT_NAMED 1921-09-24 21:00:00 NR 24.1436 131.557 main 775 764 __________P___ -1 24.1436 131.557 4 4 35
1921261N20131 1921 49 WP MM NOT_NAMED 1921-09-24 22:00:00 NR 24.2000 131.600 main 764 753 __________O___ -1 24.2000 131.600 4 5 35
1921261N20131 1921 49 WP MM NOT_NAMED 1921-09-25 00:00:00 NR 24.3298 131.702 main 754 733 __________P___ -1 24.3298 131.702 4 5 36
1921261N20131 1921 49 WP MM NOT_NAMED 1921-09-25 03:00:00 NR 24.5499 131.874 main 735 703 __________P___ -1 24.5499 131.874 4 6 35
1921261N20131 1921 49 WP MM NOT_NAMED 1921-09-25 06:00:00 NR 24.7863 132.058 main 705 685 __________P___ -1 24.7863 132.058 4 6 35
1921261N20131 1921 49 WP MM NOT_NAMED 1921-09-25 09:00:00 NR 25.0235 132.241 main 685 677 __________P___ -1 25.0235 132.241 4 6 35
1921261N20131 1921 49 WP MM NOT_NAMED 1921-09-25 10:00:00 NR 25.1000 132.300 main 677 666 __________O___ -1 25.1000 132.300 4 5 35
1921261N20131 1921 49 WP MM NOT_NAMED 1921-09-25 12:00:00 NR 25.2469 132.412 main 668 641 __________P___ -1 25.2469 132.412 4 5 35
1921261N20131 1921 49 WP MM NOT_NAMED 1921-09-25 15:00:00 NR 25.4538 132.568 main 641 630 __________P___ -1 25.4538 132.568 4 5 34
1921261N20131 1921 49 WP MM NOT_NAMED 1921-09-25 18:00:00 NR 25.6491 132.714 main 633 615 __________P___ -1 25.6491 132.714 4 5 34
1921261N20131 1921 49 WP MM NOT_NAMED 1921-09-25 21:00:00 NR 25.8378 132.854 main 618 608 __________P___ -1 25.8378 132.854 4 5 34
1921261N20131 1921 49 WP MM NOT_NAMED 1921-09-25 22:00:00 NR 25.9000 132.900 main 608 __________O___ -1 25.9000 132.900 4 5 25

Digital Typhoon Data and Search

About IBTrACS Database

This database is a web-friendly format of International Best Track Archive for Climate Stewardship (IBTrACS), a global best track data archive curated by NOAA dating back to 1842.

Updated: 2021-10-25